Time;durP1;ratioP1;P1;durP2;ratioP2;P2;SDS_P1;SDS_P2;PMS_P1;PMS_P2;Temp;Humidity;BMP_temperature;BMP_pressure;BME280_temperature;BME280_humidity;BME280_pressure;Samples;Min_cycle;Max_cycle;Signal;HPM_P1;HPM_P2
2022/05/23 00:01:43;;;;;;;133.47;24.13;;;;;;;;;;5029710;28;20310;-52
2022/05/23 00:04:09;;;;;;;80.37;15.20;;;13.50;97.30;;;;;;5026271;28;20211;-52
2022/05/23 00:06:35;;;;;;;102.63;17.97;;;13.10;93.90;;;;;;5032123;28;20219;-53
2022/05/23 00:09:01;;;;;;;115.17;20.63;;;;;;;;;;5026134;28;20809;-52
2022/05/23 00:11:27;;;;;;;102.97;18.00;;;;;;;;;;5036201;28;23037;-52
2022/05/23 00:13:53;;;;;;;126.37;21.80;;;;;;;;;;5034374;28;20252;-53
2022/05/23 00:16:26;;;;;;;100.13;17.67;;;13.00;98.40;;;;;;5026577;28;20228;-53
2022/05/23 00:18:52;;;;;;;160.50;27.47;;;;;;;;;;5026329;28;20713;-53
2022/05/23 00:21:18;;;;;;;167.43;28.77;;;12.90;99.10;;;;;;5024095;28;20215;-53
2022/05/23 00:23:45;;;;;;;141.23;24.23;;;;;;;;;;5025960;28;20191;-52
2022/05/23 00:26:17;;;;;;;124.07;21.73;;;12.80;99.90;;;;;;5030171;28;20220;-55
2022/05/23 00:28:43;;;;;;;106.80;18.77;;;;;;;;;;5027119;28;20223;-53
2022/05/23 00:31:10;;;;;;;82.50;14.73;;;11.80;99.90;;;;;;5035633;28;20626;-53
2022/05/23 00:36:22;;;;;;;138.33;23.37;;;;;;;;;;5024146;28;20273;-52
2022/05/23 00:38:48;;;;;;;144.63;24.50;;;;;;;;;;5026733;28;20269;-53
2022/05/23 00:44:12;;;;;;;119.33;19.93;;;;;;;;;;5023696;28;20282;-53
2022/05/23 00:46:53;;;;;;;166.93;27.97;;;12.50;99.90;;;;;;5023546;28;20249;-52
2022/05/23 00:49:22;;;;;;;79.53;14.07;;;12.30;99.90;;;;;;5030995;28;20211;-53
2022/05/23 00:51:48;;;;;;;114.00;19.23;;;;;;;;;;5030853;28;20227;-52
2022/05/23 00:54:14;;;;;;;121.37;20.50;;;;;;;;;;5027363;28;20230;-52
2022/05/23 00:56:43;;;;;;;179.13;29.97;;;12.20;99.90;;;;;;5011996;28;20609;-52
2022/05/23 00:59:12;;;;;;;173.50;28.70;;;12.10;99.90;;;;;;5022776;28;20703;-52
2022/05/23 01:01:38;;;;;;;116.67;19.27;;;12.00;99.90;;;;;;5027167;28;20212;-52
2022/05/23 01:04:08;;;;;;;61.77;11.17;;;12.00;99.90;;;;;;5026750;28;20219;-52
2022/05/23 01:06:34;;;;;;;107.37;17.73;;;12.00;99.90;;;;;;5012788;28;20211;-52
2022/05/23 01:09:00;;;;;;;96.47;16.63;;;;;;;;;;5033410;28;20259;-55
2022/05/23 01:11:26;;;;;;;168.50;27.73;;;;;;;;;;5027311;28;20517;-52
2022/05/23 01:13:55;;;;;;;142.97;23.77;;;12.00;99.90;;;;;;5022777;28;20684;-52
2022/05/23 01:16:24;;;;;;;171.73;28.37;;;11.90;99.90;;;;;;5025478;28;20218;-52
2022/05/23 01:18:50;;;;;;;136.20;23.87;;;12.10;99.90;;;;;;5028520;28;20218;-52
2022/05/23 01:21:53;;;;;;;124.93;21.07;;;11.80;99.90;;;;;;5026464;28;20230;-52
2022/05/23 01:24:37;;;;;;;131.77;22.20;;;11.80;99.90;;;;;;4987048;28;20294;-52
2022/05/23 01:27:06;;;;;;;111.77;18.53;;;11.90;99.90;;;;;;5023373;28;20215;-52
2022/05/23 01:29:32;;;;;;;151.70;25.03;;;;;;;;;;5023610;28;20280;-52
2022/05/23 01:31:59;;;;;;;121.37;20.93;;;;;;;;;;5025818;28;20216;-52
2022/05/23 01:34:26;;;;;;;119.00;20.03;;;11.60;99.90;;;;;;5033825;28;20234;-53
2022/05/23 01:36:52;;;;;;;91.03;16.23;;;;;;;;;;5032332;28;20222;-52
2022/05/23 01:39:18;;;;;;;153.97;25.53;;;;;;;;;;5025639;28;20223;-53
2022/05/23 01:41:44;;;;;;;88.60;15.93;;;;;;;;;;5028309;28;20282;-53
2022/05/23 01:44:10;;;;;;;136.50;22.37;;;;;;;;;;5029119;28;20191;-52
2022/05/23 01:46:36;;;;;;;134.73;21.70;;;;;;;;;;5027157;28;20257;-52
2022/05/23 01:49:02;;;;;;;77.40;13.83;;;;;;;;;;5025013;28;20219;-52
2022/05/23 01:51:28;;;;;;;118.33;19.50;;;;;;;;;;5027776;28;20215;-52
2022/05/23 01:53:54;;;;;;;173.73;28.43;;;;;;;;;;5027857;28;20220;-52
2022/05/23 01:56:20;;;;;;;120.33;19.60;;;;;;;;;;5024802;28;20195;-55
2022/05/23 02:01:30;;;;;;;140.07;23.23;;;;;;;;;;5026114;28;20253;-52
2022/05/23 02:03:56;;;;;;;151.33;24.50;;;;;;;;;;5024453;28;20231;-52
2022/05/23 02:06:22;;;;;;;126.67;20.57;;;;;;;;;;5027198;28;20219;-55
2022/05/23 02:08:48;;;;;;;132.37;21.87;;;;;;;;;;5024062;28;20208;-52
2022/05/23 02:11:14;;;;;;;105.60;17.77;;;;;;;;;;5029634;28;20230;-54
2022/05/23 02:13:43;;;;;;;158.67;25.37;;;11.50;99.90;;;;;;5024935;28;20314;-52
2022/05/23 02:16:09;;;;;;;58.13;10.40;;;11.70;99.90;;;;;;5032438;28;20215;-52
2022/05/23 02:18:35;;;;;;;101.53;16.77;;;;;;;;;;5023859;28;23492;-53
2022/05/23 02:21:01;;;;;;;126.03;20.90;;;;;;;;;;5033162;28;20227;-55
2022/05/23 02:23:27;;;;;;;60.07;10.07;;;;;;;;;;5036999;28;20640;-50
2022/05/23 02:25:53;;;;;;;67.43;11.20;;;;;;;;;;5048906;28;20227;-50
2022/05/23 02:28:19;;;;;;;34.23;6.10;;;11.40;99.90;;;;;;5047903;28;20398;-51
2022/05/23 02:30:47;;;;;;;56.77;9.67;;;11.30;99.90;;;;;;5042934;28;20603;-50
2022/05/23 02:33:13;;;;;;;63.33;10.50;;;11.30;99.90;;;;;;5041200;28;20219;-51
2022/05/23 02:35:39;;;;;;;60.27;10.27;;;;;;;;;;5046694;28;20183;-51
2022/05/23 02:38:05;;;;;;;48.93;8.40;;;;;;;;;;5048666;28;20723;-51
2022/05/23 02:40:31;;;;;;;58.47;9.83;;;;;;;;;;5044074;28;20224;-51
2022/05/23 02:42:57;;;;;;;61.33;10.30;;;11.20;99.90;;;;;;5048669;28;20607;-51
2022/05/23 02:45:22;;;;;;;56.97;9.53;;;;;;;;;;5049277;28;20373;-51
2022/05/23 02:47:49;;;;;;;64.37;10.67;;;;;;;;;;5051717;28;20285;-51
2022/05/23 02:50:15;;;;;;;60.70;10.17;;;11.30;99.90;;;;;;5052930;28;20469;-51
2022/05/23 02:52:42;;;;;;;70.03;11.50;;;11.30;99.90;;;;;;5045755;28;20220;-50
2022/05/23 02:55:09;;;;;;;61.07;10.00;;;;;;;;;;5049593;28;20212;-50
2022/05/23 02:57:35;;;;;;;61.17;10.20;;;11.30;99.90;;;;;;5047169;28;20216;-50
2022/05/23 03:00:01;;;;;;;67.30;11.00;;;;;;;;;;5049956;28;20231;-50
2022/05/23 03:05:12;;;;;;;70.33;11.67;;;10.90;99.90;;;;;;5051328;28;20222;-50
2022/05/23 03:07:38;;;;;;;62.53;10.47;;;;;;;;;;5050205;28;20235;-49
2022/05/23 03:10:05;;;;;;;54.40;9.40;;;10.80;99.90;;;;;;5047540;28;20307;-50
2022/05/23 03:12:31;;;;;;;80.43;13.33;;;;;;;;;;5046492;28;20314;-51
2022/05/23 03:14:57;;;;;;;61.63;10.50;;;11.30;99.90;;;;;;5051111;28;20679;-50
2022/05/23 03:17:23;;;;;;;60.10;10.30;;;;;;;;;;5051641;28;20195;-51
2022/05/23 03:19:49;;;;;;;66.00;11.30;;;;;;;;;;5050682;28;20259;-51
2022/05/23 03:27:46;;;;;;;56.10;9.50;;;;;;;;;;5038994;28;20427;-50
2022/05/23 03:30:11;;;;;;;89.67;14.33;;;10.90;99.90;;;;;;5039920;28;20232;-51
2022/05/23 03:32:39;;;;;;;60.20;10.23;;;11.20;99.90;;;;;;5044067;28;20253;-51
2022/05/23 03:35:07;;;;;;;73.57;11.90;;;11.10;99.90;;;;;;5039566;28;20287;-50
2022/05/23 03:37:33;;;;;;;64.03;10.70;;;;;;;;;;5045848;28;20548;-50
2022/05/23 03:39:59;;;;;;;58.00;9.93;;;;;;;;;;5048448;28;20564;-50
2022/05/23 03:42:25;;;;;;;84.63;14.23;;;;;;;;;;5046160;28;20687;-49
2022/05/23 03:44:50;;;;;;;41.20;7.60;;;11.00;99.90;;;;;;5049138;28;20187;-51
2022/05/23 03:47:16;;;;;;;84.57;14.00;;;;;;;;;;5050314;28;20203;-50
2022/05/23 03:49:42;;;;;;;82.27;13.60;;;;;;;;;;5048809;28;20223;-50
2022/05/23 03:52:08;;;;;;;58.50;10.10;;;;;;;;;;5047951;28;20214;-50
2022/05/23 03:54:33;;;;;;;71.33;11.70;;;11.60;99.90;;;;;;5050356;28;20289;-50
2022/05/23 03:57:01;;;;;;;85.83;13.90;;;11.30;99.90;;;;;;5049573;28;20222;-50
2022/05/23 03:59:27;;;;;;;62.33;10.50;;;11.20;99.90;;;;;;5050760;28;20195;-51
2022/05/23 04:01:56;;;;;;;72.10;11.77;;;11.30;99.90;;;;;;5047466;28;20212;-51
2022/05/23 04:04:22;;;;;;;44.57;7.87;;;11.30;99.90;;;;;;5036126;28;20421;-51
2022/05/23 04:06:48;;;;;;;79.57;13.00;;;;;;;;;;5040520;28;20241;-51
2022/05/23 04:09:14;;;;;;;69.33;11.50;;;;;;;;;;5045092;28;20727;-51
2022/05/23 04:11:40;;;;;;;76.00;12.60;;;;;;;;;;5050962;28;20179;-49
2022/05/23 04:14:06;;;;;;;63.37;10.43;;;;;;;;;;5047526;28;20234;-51
2022/05/23 04:16:32;;;;;;;40.03;6.97;;;;;;;;;;5046217;28;20241;-51
2022/05/23 04:18:58;;;;;;;65.33;11.03;;;;;;;;;;5055609;28;20211;-51
2022/05/23 04:21:24;;;;;;;67.83;11.67;;;11.40;99.90;;;;;;5050242;28;20246;-52
2022/05/23 04:23:50;;;;;;;59.23;10.13;;;11.30;99.90;;;;;;5050451;28;20184;-52
2022/05/23 04:26:15;;;;;;;65.07;10.97;;;11.30;99.90;;;;;;5051154;28;20552;-52
2022/05/23 04:28:41;;;;;;;62.83;10.63;;;;;;;;;;5047893;28;20368;-52
2022/05/23 04:31:08;;;;;;;69.90;11.90;;;11.50;99.90;;;;;;5042610;28;20215;-53
2022/05/23 04:36:18;;;;;;;58.00;10.13;;;11.50;99.90;;;;;;5049583;28;20318;-52
2022/05/23 04:38:44;;;;;;;61.83;10.93;;;;;;;;;;5043680;28;20686;-52
2022/05/23 04:41:10;;;;;;;85.07;14.40;;;11.90;99.90;;;;;;5051004;28;20211;-52
2022/05/23 04:43:36;;;;;;;69.63;12.07;;;;;;;;;;5048094;28;20218;-51
2022/05/23 04:46:02;;;;;;;72.53;12.63;;;;;;;;;;5042821;28;20285;-51
2022/05/23 04:51:13;;;;;;;52.10;9.13;;;12.20;99.90;;;;;;5046107;28;20226;-52
2022/05/23 04:53:39;;;;;;;69.43;11.93;;;;;;;;;;5047889;28;20184;-52
2022/05/23 04:56:05;;;;;;;81.40;14.07;;;12.00;99.90;;;;;;5045577;28;20346;-52
2022/05/23 04:58:31;;;;;;;66.97;11.87;;;12.20;99.90;;;;;;5049559;28;20223;-51
2022/05/23 05:00:57;;;;;;;73.17;13.00;;;;;;;;;;5044702;28;20217;-51
2022/05/23 05:03:23;;;;;;;59.87;10.60;;;;;;;;;;5043204;28;20215;-51
2022/05/23 05:05:49;;;;;;;101.90;18.13;;;;;;;;;;5038912;28;20183;-52
2022/05/23 05:08:15;;;;;;;98.73;16.87;;;;;;;;;;5027815;28;20203;-53
2022/05/23 05:10:40;;;;;;;124.23;21.10;;;12.80;99.90;;;;;;5042782;28;20622;-54
2022/05/23 05:13:06;;;;;;;87.53;15.47;;;12.70;99.90;;;;;;5031855;28;20262;-53
2022/05/23 05:15:32;;;;;;;82.53;13.83;;;;;;;;;;5032442;28;20226;-53
2022/05/23 05:17:58;;;;;;;191.10;32.90;;;;;;;;;;5027273;28;20306;-52
2022/05/23 05:20:24;;;;;;;100.43;17.77;;;13.00;99.90;;;;;;5023923;28;20592;-52
2022/05/23 05:22:51;;;;;;;179.17;29.03;;;12.90;99.90;;;;;;5028149;28;20684;-54
2022/05/23 05:25:17;;;;;;;135.70;23.10;;;;;;;;;;5026144;28;20578;-53
2022/05/23 05:27:43;;;;;;;215.87;36.57;;;13.00;99.90;;;;;;5008994;28;20226;-54
2022/05/23 05:30:12;;;;;;;179.80;32.80;;;13.10;99.90;;;;;;5019585;28;20209;-54
2022/05/23 05:33:00;;;;;;;264.03;45.03;;;13.10;99.90;;;;;;5018267;28;20693;-54
2022/05/23 05:35:38;;;;;;;126.80;21.70;;;13.30;99.90;;;;;;5019882;28;20223;-54
2022/05/23 05:38:25;;;;;;;92.53;16.37;;;13.40;99.90;;;;;;5037117;28;20222;-54
2022/05/23 05:41:04;;;;;;;118.93;20.83;;;13.50;99.90;;;;;;5026472;28;20220;-54
2022/05/23 05:43:34;;;;;;;191.37;32.50;;;13.30;97.00;;;;;;5020433;28;20277;-54
2022/05/23 05:46:15;;;;;;;183.07;32.23;;;13.60;92.00;;;;;;5018180;28;20216;-54
2022/05/23 05:48:46;;;;;;;176.47;29.80;;;13.80;71.90;;;;;;5021609;28;20227;-51
2022/05/23 05:51:14;;;;;;;113.67;19.73;;;14.00;61.80;;;;;;5019329;28;20223;-53
2022/05/23 05:53:40;;;;;;;152.07;26.20;;;14.50;71.40;;;;;;5023150;28;20195;-52
2022/05/23 05:56:07;;;;;;;99.53;17.33;;;13.40;24.40;;;;;;5012928;28;20496;-53
2022/05/23 05:58:33;;;;;;;168.53;29.90;;;14.50;20.30;;;;;;5015015;28;20718;-52
2022/05/23 06:00:59;;;;;;;230.37;41.13;;;14.60;38.70;;;;;;5027716;28;20207;-53
2022/05/23 06:03:25;;;;;;;83.63;15.20;;;;;;;;;;5028377;28;20568;-52
2022/05/23 06:11:29;;;;;;;116.13;21.30;;;;;;;;;;5031603;28;20298;-54
2022/05/23 06:13:56;;;;;;;113.97;21.77;;;15.40;1.00;;;;;;5025019;28;20246;-52
2022/05/23 06:16:26;;;;;;;87.35;16.17;;;15.40;1.00;;;;;;5030833;28;20215;-54
2022/05/23 06:18:52;;;;;;;100.37;17.73;;;;;;;;;;5037158;28;20215;-52
2022/05/23 06:21:19;;;;;;;59.00;11.40;;;;;;;;;;5036174;28;20548;-53
2022/05/23 06:23:47;;;;;;;79.67;14.83;;;;;;;;;;5036830;28;20717;-52
2022/05/23 06:26:15;;;;;;;103.53;18.77;;;15.30;1.00;;;;;;5033032;28;20537;-53
2022/05/23 06:28:42;;;;;;;153.57;25.87;;;15.60;1.00;;;;;;5037467;28;20211;-52
2022/05/23 06:31:08;;;;;;;123.37;21.57;;;;;;;;;;5031038;28;20212;-52
2022/05/23 06:33:34;;;;;;;229.65;38.10;;;;;;;;;;5021850;28;25347;-53
2022/05/23 06:36:00;;;;;;;217.75;35.33;;;;;;;;;;5030635;28;20226;-52
2022/05/23 06:38:26;;;;;;;100.53;18.33;;;;;;;;;;5023045;28;20235;-52
2022/05/23 06:40:56;;;;;;;110.25;19.38;;;15.40;1.00;;;;;;5022912;28;20246;-54
2022/05/23 06:43:23;;;;;;;108.85;19.92;;;15.20;1.00;;;;;;5000962;28;20212;-54
2022/05/23 06:45:49;;;;;;;139.67;24.73;;;;;;;;;;5038492;28;23010;-53
2022/05/23 06:48:15;;;;;;;151.27;27.63;;;15.60;1.00;;;;;;5011623;28;20225;-53
2022/05/23 06:50:41;;;;;;;147.87;26.53;;;;;;;;;;5031740;28;20184;-54
2022/05/23 06:53:07;;;;;;;121.87;22.40;;;;;;;;;;5028850;28;20207;-54
2022/05/23 06:55:33;;;;;;;128.13;22.95;;;;;;;;;;5032454;28;20217;-52
2022/05/23 06:57:59;;;;;;;83.43;15.60;;;;;;;;;;5036941;28;20231;-52
2022/05/23 07:00:25;;;;;;;111.30;20.48;;;;;;;;;;5037462;28;20212;-53
2022/05/23 07:02:51;;;;;;;150.43;27.58;;;;;;;;;;5040435;28;20171;-54
2022/05/23 07:13:34;;;;;;;98.05;17.92;;;;;;;;;;5033953;28;20685;-53
2022/05/23 07:16:00;;;;;;;93.63;17.33;;;;;;;;;;5035134;28;20216;-53
2022/05/23 07:18:27;;;;;;;99.47;18.50;;;;;;;;;;5032707;28;20246;-53
2022/05/23 07:20:53;;;;;;;160.90;29.33;;;;;;;;;;5029195;28;20592;-53
2022/05/23 07:23:20;;;;;;;131.17;24.23;;;;;;;;;;5030437;28;20613;-53
2022/05/23 07:25:46;;;;;;;110.67;20.43;;;16.40;1.00;;;;;;5029150;28;20219;-53
2022/05/23 07:28:12;;;;;;;109.68;20.42;;;;;;;;;;5027428;28;20667;-53
2022/05/23 07:30:38;;;;;;;133.67;25.00;;;;;;;;;;5031046;28;20550;-52
2022/05/23 07:33:04;;;;;;;115.97;21.02;;;16.40;1.00;;;;;;5031448;28;20219;-53
2022/05/23 07:35:29;;;;;;;106.40;20.27;;;;;;;;;;5033208;28;20647;-53
2022/05/23 07:37:55;;;;;;;124.53;23.95;;;;;;;;;;5026307;28;20215;-53
2022/05/23 07:40:21;;;;;;;89.25;16.40;;;;;;;;;;5031627;28;20227;-52
2022/05/23 07:42:47;;;;;;;169.98;28.52;;;;;;;;;;5037859;28;20215;-52
2022/05/23 07:45:14;;;;;;;95.75;17.25;;;16.90;99.90;;;;;;5036535;28;20993;-52
2022/05/23 07:47:40;;;;;;;69.35;13.45;;;16.80;1.00;;;;;;5037009;28;20309;-53
2022/05/23 07:50:07;;;;;;;111.25;21.00;;;17.10;1.00;;;;;;5034174;28;20904;-53
2022/05/23 07:52:33;;;;;;;115.47;21.45;;;17.10;99.90;;;;;;5036615;28;20254;-54
2022/05/23 08:00:32;;;;;;;136.38;24.75;;;17.60;1.00;;;;;;5031023;28;20312;-54
2022/05/23 08:03:10;;;;;;;146.32;27.60;;;17.40;1.00;;;;;;5028414;28;20223;-54
2022/05/23 08:05:37;;;;;;;154.90;29.38;;;;;;;;;;5030160;28;20188;-52
2022/05/23 08:08:02;;;;;;;163.98;32.53;;;17.60;99.90;;;;;;5033694;28;20205;-53
2022/05/23 08:10:29;;;;;;;131.30;25.77;;;;;;;;;;5009924;28;20231;-52
2022/05/23 08:12:57;;;;;;;139.35;27.92;;;17.90;1.00;;;;;;5015518;28;20248;-53
2022/05/23 08:15:25;;;;;;;136.50;26.77;;;17.90;1.00;;;;;;5024263;28;20671;-52
2022/05/23 08:17:51;;;;;;;175.75;36.00;;;;;;;;;;5026082;28;20203;-52
2022/05/23 08:20:17;;;;;;;101.07;20.90;;;18.10;1.00;;;;;;5030234;28;20216;-53
2022/05/23 08:22:44;;;;;;;92.97;17.73;;;;;;;;;;5031878;28;20269;-52
2022/05/23 08:25:11;;;;;;;146.23;28.73;;;18.20;1.00;;;;;;5031719;28;20497;-53
2022/05/23 08:27:37;;;;;;;180.73;35.33;;;17.90;7.40;;;;;;5023434;28;20235;-54
2022/05/23 08:30:05;;;;;;;119.05;23.77;;;18.20;1.00;;;;;;5001368;28;20311;-53
2022/05/23 08:32:30;;;;;;;64.78;13.18;;;18.00;98.90;;;;;;5047155;28;20186;-52
2022/05/23 08:34:57;;;;;;;62.38;12.50;;;;;;;;;;5050546;28;20211;-52
2022/05/23 08:37:22;;;;;;;60.67;11.88;;;18.50;99.90;;;;;;5050698;28;20638;-52
2022/05/23 08:39:48;;;;;;;79.88;16.40;;;;;;;;;;5050238;28;20259;-52
2022/05/23 08:42:44;;;;;;;78.43;16.08;;;18.40;1.00;;;;;;5048934;28;20219;-52
2022/05/23 08:45:21;;;;;;;71.97;14.85;;;18.80;1.00;;;;;;5029415;28;20222;-52
2022/05/23 08:48:18;;;;;;;78.63;16.80;;;18.90;1.00;;;;;;5032863;28;20228;-52
2022/05/23 08:51:10;;;;;;;81.85;16.45;;;18.80;1.00;;;;;;5050241;28;20226;-52
2022/05/23 08:53:43;;;;;;;80.22;16.33;;;18.90;1.00;;;;;;5050382;28;20643;-52
2022/05/23 08:56:26;;;;;;;69.43;13.98;;;19.20;1.00;;;;;;5050733;28;20247;-52
2022/05/23 08:59:00;;;;;;;79.03;16.25;;;18.80;99.90;;;;;;5046539;28;20614;-52
2022/05/23 09:01:45;;;;;;;64.55;13.80;;;18.90;1.00;;;;;;5050404;28;20214;-53
2022/05/23 09:04:48;;;;;;;69.30;14.43;;;19.30;1.00;;;;;;5049817;28;20207;-52
2022/05/23 09:07:24;;;;;;;68.20;14.40;;;19.50;10.00;;;;;;5050454;28;20219;-52
2022/05/23 09:09:51;;;;;;;66.22;14.00;;;19.20;1.00;;;;;;5049908;28;20233;-52
2022/05/23 09:12:17;;;;;;;75.93;15.90;;;19.60;1.00;;;;;;5047095;28;20625;-52
2022/05/23 09:14:43;;;;;;;64.60;13.73;;;;;;;;;;5050065;28;20536;-52
2022/05/23 09:17:32;;;;;;;75.72;15.48;;;19.40;1.00;;;;;;5049993;28;20254;-52
2022/05/23 09:20:13;;;;;;;99.00;20.60;;;19.70;99.90;;;;;;5049622;28;20223;-52
2022/05/23 09:22:43;;;;;;;75.90;15.98;;;19.60;97.00;;;;;;5049649;28;20385;-52
2022/05/23 09:25:12;;;;;;;87.53;18.45;;;19.50;1.00;;;;;;5049796;28;20789;-52
2022/05/23 09:27:43;;;;;;;45.70;9.95;;;19.70;99.90;;;;;;5049215;28;20622;-52
2022/05/23 09:30:17;;;;;;;67.93;14.75;;;19.70;98.70;;;;;;5050144;28;20208;-52
2022/05/23 09:33:00;;;;;;;59.35;13.38;;;19.70;94.30;;;;;;5049932;28;20175;-52
2022/05/23 09:35:49;;;;;;;66.75;14.55;;;19.80;91.70;;;;;;5049903;28;20167;-52
2022/05/23 09:38:25;;;;;;;43.08;9.80;;;20.20;1.00;;;;;;5048303;28;20276;-53
2022/05/23 09:40:52;;;;;;;78.30;16.23;;;20.10;1.00;;;;;;5048806;28;20235;-53
2022/05/23 09:49:19;;;;;;;73.25;15.88;;;20.10;99.90;;;;;;5048556;28;20322;-53
2022/05/23 09:51:58;;;;;;;56.15;12.43;;;20.60;99.90;;;;;;5031005;28;20219;-53
2022/05/23 09:54:29;;;;;;;57.53;12.70;;;20.80;99.90;;;;;;5042717;28;20215;-53
2022/05/23 09:56:56;;;;;;;86.15;18.55;;;21.20;1.00;;;;;;5032564;28;20221;-53
2022/05/23 09:59:30;;;;;;;54.70;12.27;;;20.70;42.10;;;;;;5049996;28;20195;-53
2022/05/23 10:01:55;;;;;;;49.45;11.63;;;21.50;47.80;;;;;;5029701;28;20222;-53
2022/05/23 10:04:30;;;;;;;55.45;12.60;;;21.30;1.00;;;;;;5041274;28;20662;-53
2022/05/23 10:06:56;;;;;;;68.97;15.13;;;;;;;;;;5049260;28;20294;-53
2022/05/23 10:09:34;;;;;;;62.97;13.85;;;21.40;1.00;;;;;;5049036;28;20298;-53
2022/05/23 10:12:08;;;;;;;88.18;19.52;;;21.00;1.00;;;;;;5037473;28;20228;-54
2022/05/23 10:14:42;;;;;;;59.50;13.32;;;21.00;1.00;;;;;;5030894;28;20643;-53
2022/05/23 10:17:08;;;;;;;114.22;25.27;;;;;;;;;;5047776;28;20276;-53
2022/05/23 10:19:36;;;;;;;63.95;14.48;;;21.50;1.00;;;;;;5048561;28;20242;-53
2022/05/23 10:22:22;;;;;;;75.55;17.63;;;22.10;1.00;;;;;;5043105;28;20490;-53
2022/05/23 10:25:01;;;;;;;63.28;15.32;;;24.70;1.00;;;;;;5049118;28;20311;-53
2022/05/23 10:27:45;;;;;;;73.15;17.13;;;21.90;1.00;;;;;;5048165;28;20243;-52
2022/05/23 10:30:14;;;;;;;85.35;20.60;;;21.90;1.00;;;;;;5042602;28;20261;-53
2022/05/23 10:32:46;;;;;;;71.93;17.98;;;22.00;1.00;;;;;;5030412;28;20172;-55
2022/05/23 10:35:21;;;;;;;118.18;29.10;;;22.10;1.00;;;;;;5050006;28;20176;-54
2022/05/23 10:37:47;;;;;;;69.70;17.58;;;;;;;;;;5048313;28;20213;-53
2022/05/23 10:43:18;;;;;;;53.75;16.02;;;22.40;1.00;;;;;;5048017;28;20289;-53
2022/05/23 10:46:01;;;;;;;66.68;18.60;;;22.70;1.00;;;;;;5048583;28;20246;-54
2022/05/23 10:48:38;;;;;;;49.55;15.60;;;22.70;1.00;;;;;;5038838;28;20295;-54
2022/05/23 10:51:43;;;;;;;65.55;19.60;;;23.00;1.00;;;;;;5033519;28;20218;-54
2022/05/23 10:54:33;;;;;;;68.35;29.75;;;22.90;1.00;;;;;;5040560;28;20312;-54
2022/05/23 10:57:22;;;;;;;67.82;29.27;;;22.70;99.90;;;;;;5037755;28;20210;-54
2022/05/23 10:59:51;;;;;;;51.28;25.80;;;;;;;;;;5049055;28;20557;-54
2022/05/23 11:02:37;;;;;;;61.45;28.35;;;23.00;1.00;;;;;;5048169;28;20190;-54
2022/05/23 11:05:26;;;;;;;84.30;34.95;;;23.00;1.00;;;;;;5050298;28;20583;-54
2022/05/23 11:08:05;;;;;;;70.97;32.72;;;23.30;1.00;;;;;;5052213;28;20224;-54
2022/05/23 11:10:56;;;;;;;96.25;40.50;;;23.30;6.20;;;;;;5052053;28;20203;-54
2022/05/23 11:13:45;;;;;;;61.47;30.75;;;23.40;1.00;;;;;;5032724;28;20211;-54
2022/05/23 11:16:27;;;;;;;81.57;34.22;;;23.50;1.00;;;;;;5052025;28;20308;-54
2022/05/23 11:19:18;;;;;;;84.60;38.42;;;23.30;1.00;;;;;;5051600;28;20247;-54
2022/05/23 11:22:03;;;;;;;116.13;45.20;;;23.20;1.00;;;;;;5050223;28;20691;-53
2022/05/23 11:24:53;;;;;;;78.68;43.80;;;23.20;1.00;;;;;;5050393;28;20216;-53
2022/05/23 11:35:49;;;;;;;116.70;48.95;;;23.40;1.00;;;;;;5027072;28;20245;-54
2022/05/23 11:38:17;;;;;;;92.32;43.65;;;23.40;1.00;;;;;;5047123;28;20189;-54
2022/05/23 11:41:00;;;;;;;57.30;43.58;;;23.10;99.90;;;;;;5051411;28;20220;-54
2022/05/23 11:43:27;;;;;;;103.07;49.85;;;;;;;;;;5040813;28;20305;-54
2022/05/23 11:46:02;;;;;;;31.00;27.27;;;23.50;1.00;;;;;;5051626;28;20219;-54
2022/05/23 11:48:37;;;;;;;70.70;37.95;;;23.00;1.00;;;;;;5034585;28;20223;-54
2022/05/23 11:51:21;;;;;;;58.33;43.13;;;23.10;1.00;;;;;;5050451;28;20210;-54
2022/05/23 11:54:04;;;;;;;74.90;41.95;;;23.30;1.00;;;;;;5031126;28;20180;-54
2022/05/23 11:56:44;;;;;;;84.13;45.08;;;23.30;1.00;;;;;;5042789;28;20179;-54
2022/05/23 11:59:24;;;;;;;118.38;53.33;;;23.40;1.00;;;;;;5033119;28;20222;-54
2022/05/23 12:02:11;;;;;;;79.05;46.33;;;23.30;1.00;;;;;;5051233;28;20288;-54
2022/05/23 12:04:48;;;;;;;88.57;51.30;;;23.80;1.00;;;;;;5052019;28;20212;-54
2022/05/23 12:07:52;;;;;;;86.18;49.42;;;23.30;1.00;;;;;;5051008;28;20242;-54
2022/05/23 12:10:21;;;;;;;87.63;52.05;;;23.30;1.00;;;;;;5050518;28;20215;-54
2022/05/23 12:12:52;;;;;;;95.80;57.92;;;23.40;1.00;;;;;;5050659;28;20212;-54
2022/05/23 12:15:42;;;;;;;84.35;54.08;;;23.60;1.00;;;;;;5049131;28;20204;-54
2022/05/23 12:18:23;;;;;;;90.68;60.25;;;25.90;1.00;;;;;;5030679;28;20219;-54
2022/05/23 12:20:52;;;;;;;119.07;69.25;;;23.40;1.00;;;;;;5039842;28;20179;-54
2022/05/23 12:23:31;;;;;;;71.88;56.65;;;23.50;1.00;;;;;;5050658;28;20180;-54
2022/05/23 12:26:10;;;;;;;80.30;61.42;;;23.60;1.00;;;;;;5043344;28;20208;-54
2022/05/23 12:28:50;;;;;;;91.30;65.80;;;23.90;1.00;;;;;;5046103;28;20273;-54
2022/05/23 12:31:18;;;;;;;103.07;63.90;;;24.00;1.00;;;;;;5047600;28;20215;-54
2022/05/23 12:34:03;;;;;;;105.93;79.32;;;24.10;1.00;;;;;;5042088;28;20255;-54
2022/05/23 12:36:31;;;;;;;89.05;79.38;;;23.60;1.00;;;;;;5049875;28;20302;-54
2022/05/23 12:39:25;;;;;;;95.68;85.60;;;24.20;1.00;;;;;;5046722;28;20224;-54
2022/05/23 12:42:00;;;;;;;112.20;100.57;;;24.60;97.70;;;;;;5049641;28;20405;-54
2022/05/23 12:44:49;;;;;;;144.70;125.80;;;24.30;1.00;;;;;;5047510;28;20194;-54
2022/05/23 12:47:16;;;;;;;175.10;144.60;;;;;;;;;;5047206;28;20286;-53
2022/05/23 12:50:21;;;;;;;167.77;149.15;;;24.70;1.00;;;;;;5048031;28;20211;-53
2022/05/23 12:53:22;;;;;;;190.48;160.68;;;24.70;1.00;;;;;;5045813;28;20211;-54
2022/05/23 12:56:24;;;;;;;158.88;143.15;;;24.70;1.00;;;;;;5029614;28;20211;-54
2022/05/23 12:59:30;;;;;;;182.82;158.55;;;24.90;99.90;;;;;;5033149;28;20755;-54
2022/05/23 13:02:02;;;;;;;165.88;147.88;;;25.10;1.00;;;;;;5046786;28;20239;-54
2022/05/23 13:04:35;;;;;;;166.50;147.43;;;25.00;1.00;;;;;;5030511;28;20610;-54
2022/05/23 13:07:12;;;;;;;180.80;154.90;;;25.20;1.00;;;;;;5041818;28;20203;-54
2022/05/23 13:09:41;;;;;;;167.45;150.00;;;25.40;99.90;;;;;;5040608;28;20203;-54
2022/05/23 13:12:11;;;;;;;208.63;174.27;;;25.60;1.00;;;;;;5043065;28;20576;-54
2022/05/23 13:14:58;;;;;;;192.52;171.75;;;25.50;1.00;;;;;;5036991;28;20271;-54
2022/05/23 13:17:36;;;;;;;182.35;163.82;;;25.50;1.00;;;;;;5037947;28;20223;-54
2022/05/23 13:23:22;;;;;;;191.65;172.68;;;25.70;91.30;;;;;;5047203;28;20257;-54
2022/05/23 13:25:48;;;;;;;184.50;166.52;;;25.50;1.00;;;;;;5049413;28;20611;-54
2022/05/23 13:28:15;;;;;;;193.75;173.70;;;25.80;1.00;;;;;;5036198;28;20695;-54
2022/05/23 13:30:44;;;;;;;182.73;166.85;;;25.90;1.00;;;;;;5049098;28;20219;-54
2022/05/23 13:33:16;;;;;;;209.27;186.35;;;26.10;1.00;;;;;;5049160;28;20229;-54
2022/05/23 13:35:44;;;;;;;221.45;185.95;;;25.80;1.00;;;;;;5049244;28;20253;-54
2022/05/23 13:38:25;;;;;;;210.57;183.25;;;26.10;1.00;;;;;;5048837;28;20286;-54
2022/05/23 13:40:59;;;;;;;224.40;200.15;;;26.00;1.00;;;;;;5045345;28;20584;-54
2022/05/23 13:43:31;;;;;;;216.85;192.93;;;26.10;1.00;;;;;;5049429;28;20362;-53
2022/05/23 13:45:56;;;;;;;218.32;195.70;;;26.30;99.90;;;;;;5049711;28;20269;-54
2022/05/23 13:48:30;;;;;;;202.27;181.32;;;26.30;1.00;;;;;;5049363;28;20219;-54
2022/05/23 13:51:03;;;;;;;191.70;173.10;;;26.40;1.00;;;;;;5046928;28;20211;-54
2022/05/23 13:53:46;;;;;;;184.10;165.98;;;25.80;1.00;;;;;;5031305;28;20652;-54
2022/05/23 13:56:13;;;;;;;171.63;154.98;;;;;;;;;;5049487;28;20207;-54
2022/05/23 13:58:44;;;;;;;175.52;158.10;;;25.60;1.00;;;;;;5046677;28;20219;-54
2022/05/23 14:01:30;;;;;;;181.40;163.07;;;26.20;1.00;;;;;;5048785;28;20207;-54
2022/05/23 14:04:00;;;;;;;162.35;148.23;;;26.30;1.00;;;;;;5049560;28;20337;-54
2022/05/23 14:06:31;;;;;;;174.95;159.73;;;26.50;1.00;;;;;;5049204;28;20628;-54
2022/05/23 14:09:00;;;;;;;192.00;173.05;;;26.80;99.90;;;;;;5048699;28;20686;-54
2022/05/23 14:11:31;;;;;;;172.38;157.88;;;27.00;1.00;;;;;;5050387;28;21143;-54
2022/05/23 14:14:14;;;;;;;178.77;163.65;;;27.00;1.00;;;;;;5048926;28;20214;-54
2022/05/23 14:16:41;;;;;;;166.23;151.60;;;27.30;1.00;;;;;;5049398;28;20672;-54
2022/05/23 14:19:18;;;;;;;209.57;187.88;;;26.70;1.00;;;;;;5045524;28;20260;-54
2022/05/23 14:21:43;;;;;;;200.10;180.77;;;27.40;49.50;;;;;;5042228;28;20257;-54
2022/05/23 14:24:27;;;;;;;205.07;186.88;;;27.80;1.00;;;;;;5048137;28;20571;-54